createdAt,value
2023-05-23T00:00:15.665Z,100246.81
2023-05-23T00:02:47.153Z,100247.16
2023-05-23T00:05:18.088Z,100247.09
2023-05-23T00:07:47.879Z,100248.75
2023-05-23T00:10:16.798Z,100248.28
2023-05-23T00:12:48.369Z,100255.28
2023-05-23T00:15:17.713Z,100249.47
2023-05-23T00:17:47.093Z,100247.00
2023-05-23T00:20:17.093Z,100238.03
2023-05-23T00:22:48.522Z,100243.19
2023-05-23T00:25:22.236Z,100238.50
2023-05-23T00:27:51.231Z,100238.84
2023-05-23T00:30:20.476Z,100243.53
2023-05-23T00:32:49.496Z,100234.38
2023-05-23T00:35:18.428Z,100233.34
2023-05-23T00:37:47.148Z,100230.84
2023-05-23T00:40:16.120Z,100232.88
2023-05-23T00:42:46.624Z,100233.78
2023-05-23T00:45:16.014Z,100229.09
2023-05-23T00:47:45.470Z,100226.63
2023-05-23T00:50:15.902Z,100229.47
2023-05-23T00:52:45.939Z,100233.03
2023-05-23T00:55:14.879Z,100231.19
2023-05-23T00:57:45.943Z,100229.16
2023-05-23T01:00:15.501Z,100230.66
2023-05-23T01:02:47.375Z,100229.72
2023-05-23T01:05:17.944Z,100227.19
2023-05-23T01:07:47.735Z,100225.91
2023-05-23T01:10:17.150Z,100233.28
2023-05-23T01:13:00.087Z,100231.97
2023-05-23T01:15:32.598Z,100231.66
2023-05-23T01:18:04.771Z,100237.16
2023-05-23T01:20:37.464Z,100237.91
2023-05-23T01:23:38.182Z,100235.69
2023-05-23T01:26:19.990Z,100237.91
2023-05-23T01:28:53.350Z,100234.28
2023-05-23T01:31:23.771Z,100233.16
2023-05-23T01:33:53.568Z,100227.91
2023-05-23T01:36:22.629Z,100228.41
2023-05-23T01:38:54.082Z,100226.59
2023-05-23T01:41:23.129Z,100223.44
2023-05-23T01:43:53.128Z,100216.97
2023-05-23T01:46:22.112Z,100220.09
2023-05-23T01:48:51.367Z,100215.31
2023-05-23T01:51:20.586Z,100215.47
2023-05-23T01:53:50.640Z,100213.19
2023-05-23T01:56:20.006Z,100208.03
2023-05-23T01:58:48.901Z,100210.88
2023-05-23T02:01:19.599Z,100205.72
2023-05-23T02:03:48.742Z,100204.22
2023-05-23T02:06:17.731Z,100198.06
2023-05-23T02:08:48.980Z,100210.03
2023-05-23T02:11:17.977Z,100203.88
2023-05-23T02:13:46.446Z,100198.72
2023-05-23T02:16:15.920Z,100201.03
2023-05-23T02:18:47.304Z,100197.19
2023-05-23T02:21:16.354Z,100199.72
2023-05-23T02:23:45.307Z,100192.91
2023-05-23T02:26:14.304Z,100193.72
2023-05-23T02:28:45.519Z,100193.94
2023-05-23T02:31:17.514Z,100189.75
2023-05-23T02:33:47.999Z,100186.97
2023-05-23T02:36:16.824Z,100184.78
2023-05-23T02:38:46.853Z,100185.97
2023-05-23T02:41:15.859Z,100183.97
2023-05-23T02:43:47.284Z,100184.44
2023-05-23T02:46:18.009Z,100182.97
2023-05-23T02:48:48.567Z,100189.75
2023-05-23T02:51:17.330Z,100182.59
2023-05-23T02:53:46.350Z,100184.63
2023-05-23T02:56:15.892Z,100183.41
2023-05-23T02:58:44.821Z,100181.91
2023-05-23T03:01:13.856Z,100184.03
2023-05-23T03:03:42.957Z,100182.22
2023-05-23T03:06:14.900Z,100177.63
2023-05-23T03:08:44.210Z,100181.25
2023-05-23T03:11:13.165Z,100184.22
2023-05-23T03:13:41.746Z,100170.91
2023-05-23T03:16:12.048Z,100173.75
2023-05-23T03:18:42.275Z,100174.81
2023-05-23T03:21:12.764Z,100175.47
2023-05-23T03:23:41.436Z,100181.56
2023-05-23T03:26:10.645Z,100181.00
2023-05-23T03:28:39.347Z,100175.28
2023-05-23T03:31:08.316Z,100176.66
2023-05-23T03:33:39.700Z,100182.56
2023-05-23T03:36:09.751Z,100179.78
2023-05-23T03:38:40.234Z,100186.53
2023-05-23T03:41:09.452Z,100172.97
2023-05-23T03:43:38.044Z,100183.66
2023-05-23T03:46:07.147Z,100172.31
2023-05-23T03:48:36.198Z,100170.09
2023-05-23T03:51:05.537Z,100179.91
2023-05-23T03:53:36.429Z,100181.09
2023-05-23T03:56:08.216Z,100176.41
2023-05-23T03:58:36.818Z,100167.91
2023-05-23T04:01:11.385Z,100173.63
2023-05-23T04:03:40.503Z,100163.94
2023-05-23T04:06:11.589Z,100165.88
2023-05-23T04:08:43.777Z,100162.53
2023-05-23T04:11:15.907Z,100158.78
2023-05-23T04:13:47.328Z,100163.19
2023-05-23T04:16:16.843Z,100167.75
2023-05-23T04:18:47.665Z,100164.94
2023-05-23T04:21:16.981Z,100162.56
2023-05-23T04:23:54.633Z,100157.19
2023-05-23T04:26:25.411Z,100161.84
2023-05-23T04:28:55.428Z,100161.31
2023-05-23T04:31:24.563Z,100168.97
2023-05-23T04:33:53.982Z,100163.22
2023-05-23T04:36:23.728Z,100166.63
2023-05-23T04:38:56.065Z,100160.19
2023-05-23T04:41:26.583Z,100157.72
2023-05-23T04:44:18.423Z,100156.41
2023-05-23T04:47:10.235Z,100155.63
2023-05-23T04:50:00.558Z,100160.44
2023-05-23T04:52:30.936Z,100153.66
2023-05-23T04:55:00.665Z,100157.38
2023-05-23T04:57:31.671Z,100153.03
2023-05-23T05:00:01.498Z,100160.44
2023-05-23T05:02:35.409Z,100157.72
2023-05-23T05:05:05.496Z,100151.56
2023-05-23T05:07:36.597Z,100150.19
2023-05-23T05:10:07.054Z,100153.63
2023-05-23T05:12:38.410Z,100146.63
2023-05-23T05:15:08.726Z,100140.66
2023-05-23T05:17:39.404Z,100139.47
2023-05-23T05:20:12.648Z,100142.75
2023-05-23T05:22:41.599Z,100137.75
2023-05-23T05:25:13.229Z,100133.59
2023-05-23T05:27:44.012Z,100133.91
2023-05-23T05:30:15.820Z,100137.06
2023-05-23T05:32:52.918Z,100130.31
2023-05-23T05:35:21.960Z,100130.19
2023-05-23T05:37:50.581Z,100135.47
2023-05-23T05:40:20.654Z,100137.66
2023-05-23T05:42:51.048Z,100134.38
2023-05-23T05:45:20.740Z,100137.13
2023-05-23T05:47:52.143Z,100138.75
2023-05-23T05:50:23.043Z,100133.13
2023-05-23T05:52:51.658Z,100131.16
2023-05-23T05:55:20.623Z,100129.41
2023-05-23T05:57:55.497Z,100133.75
2023-05-23T06:00:25.914Z,100133.63
2023-05-23T06:02:58.495Z,100128.56
2023-05-23T06:05:39.562Z,100122.44
2023-05-23T06:08:08.783Z,100122.50
2023-05-23T06:10:39.318Z,100130.44
2023-05-23T06:13:09.985Z,100127.03
2023-05-23T06:15:40.671Z,100135.44
2023-05-23T06:18:10.124Z,100130.50
2023-05-23T06:20:39.347Z,100123.25
2023-05-23T06:23:12.940Z,100123.97
2023-05-23T06:25:42.076Z,100120.06
2023-05-23T06:28:12.544Z,100116.06
2023-05-23T06:30:42.828Z,100119.47
2023-05-23T06:33:12.457Z,100113.50
2023-05-23T06:35:41.515Z,100109.84
2023-05-23T06:38:10.685Z,100108.25
2023-05-23T06:40:39.573Z,100104.22
2023-05-23T06:43:08.969Z,100109.78
2023-05-23T06:45:48.853Z,100100.16
2023-05-23T06:48:18.038Z,100102.31
2023-05-23T06:50:47.987Z,100097.19
2023-05-23T06:53:19.372Z,100093.00
2023-05-23T06:55:50.348Z,100095.97
2023-05-23T06:58:25.307Z,100096.78
2023-05-23T07:00:57.003Z,100088.22
2023-05-23T07:03:32.904Z,100079.66
2023-05-23T07:06:06.673Z,100087.47
2023-05-23T07:08:36.181Z,100081.13
2023-05-23T07:11:07.342Z,100081.28
2023-05-23T07:13:41.785Z,100075.50
2023-05-23T07:16:17.371Z,100082.75
2023-05-23T07:19:05.676Z,100072.09
2023-05-23T07:21:38.630Z,100069.53
2023-05-23T07:24:08.935Z,100067.66
2023-05-23T07:26:38.036Z,100061.91
2023-05-23T07:29:08.164Z,100063.66
2023-05-23T07:31:38.412Z,100053.34
2023-05-23T07:34:07.670Z,100067.41
2023-05-23T07:36:59.673Z,100056.88
2023-05-23T07:39:33.280Z,100052.34
2023-05-23T07:42:03.323Z,100042.00
2023-05-23T07:44:32.378Z,100040.78
2023-05-23T07:47:03.080Z,100045.97
2023-05-23T07:49:32.027Z,100038.31
2023-05-23T07:52:01.189Z,100050.75
2023-05-23T07:54:30.506Z,100038.56
2023-05-23T07:57:01.658Z,100046.97
2023-05-23T07:59:31.385Z,100041.66
2023-05-23T08:02:00.428Z,100052.69
2023-05-23T08:04:32.640Z,100046.56
2023-05-23T08:07:05.657Z,100036.97
2023-05-23T08:09:49.237Z,100054.38
2023-05-23T08:12:21.200Z,100038.50
2023-05-23T08:14:54.328Z,100041.81
2023-05-23T08:17:30.863Z,100039.41
2023-05-23T08:20:02.388Z,100032.22
2023-05-23T08:22:32.700Z,100028.59
2023-05-23T08:25:03.110Z,100029.91
2023-05-23T08:27:34.066Z,100031.53
2023-05-23T08:30:10.012Z,100028.03
2023-05-23T08:32:40.104Z,100021.03
2023-05-23T08:35:11.020Z,100025.94
2023-05-23T08:37:43.200Z,100028.50
2023-05-23T08:40:16.351Z,100024.31
2023-05-23T08:42:49.857Z,100013.69
2023-05-23T08:45:20.029Z,100009.22
2023-05-23T08:47:49.702Z,100021.34
2023-05-23T08:50:23.299Z,100021.47
2023-05-23T08:52:56.989Z,100011.19
2023-05-23T08:55:27.979Z,99999.59
2023-05-23T08:58:00.439Z,100009.16
2023-05-23T09:00:39.399Z,100005.84
2023-05-23T09:03:08.687Z,100021.47
2023-05-23T09:05:58.391Z,100006.06
2023-05-23T09:08:28.218Z,100003.47
2023-05-23T09:11:02.953Z,100002.53
2023-05-23T09:13:35.061Z,100008.47
2023-05-23T09:16:09.043Z,100000.09
2023-05-23T09:18:46.348Z,100010.16
2023-05-23T09:21:19.569Z,100004.81
2023-05-23T09:23:58.796Z,99990.06
2023-05-23T09:26:29.917Z,99996.06
2023-05-23T09:29:00.404Z,99996.91
2023-05-23T09:31:30.046Z,99980.00
2023-05-23T09:34:00.290Z,99991.19
2023-05-23T09:36:33.836Z,99992.50
2023-05-23T09:39:05.835Z,99980.94
2023-05-23T09:41:36.036Z,99986.66
2023-05-23T09:44:10.565Z,99987.59
2023-05-23T09:46:39.615Z,99987.78
2023-05-23T09:49:19.350Z,99975.84
2023-05-23T09:52:00.890Z,99996.91
2023-05-23T09:54:30.069Z,99981.50
2023-05-23T09:57:01.808Z,99981.94
2023-05-23T09:59:33.433Z,99981.34
2023-05-23T10:02:04.448Z,99980.31
2023-05-23T10:04:33.360Z,99986.28
2023-05-23T10:07:07.065Z,99982.09
2023-05-23T10:09:39.785Z,99992.50
2023-05-23T10:12:44.653Z,99980.03
2023-05-23T10:15:17.110Z,99984.59
2023-05-23T10:17:59.645Z,99982.38
2023-05-23T10:20:33.222Z,99975.94
2023-05-23T10:23:05.554Z,99960.97
2023-05-23T10:25:35.951Z,99975.16
2023-05-23T10:28:06.083Z,99969.69
2023-05-23T10:30:36.158Z,99954.53
2023-05-23T10:33:06.649Z,99959.22
2023-05-23T10:35:49.777Z,99953.31
2023-05-23T10:38:30.156Z,99951.47
2023-05-23T10:41:07.088Z,99953.72
2023-05-23T10:43:57.223Z,99955.81
2023-05-23T10:46:53.115Z,99942.69
2023-05-23T10:49:22.805Z,99966.06
2023-05-23T10:51:52.697Z,99952.28
2023-05-23T10:54:23.438Z,99950.66
2023-05-23T10:57:04.542Z,99958.56
2023-05-23T10:59:33.667Z,99953.38
2023-05-23T11:02:03.160Z,99954.41
2023-05-23T11:04:31.851Z,99952.72
2023-05-23T11:07:01.052Z,99960.88
2023-05-23T11:09:31.677Z,99947.34
2023-05-23T11:12:05.484Z,99954.38
2023-05-23T11:14:55.872Z,99939.59
2023-05-23T11:17:50.652Z,99936.78
2023-05-23T11:20:23.570Z,99930.78
2023-05-23T11:22:56.498Z,99935.66
2023-05-23T11:25:41.625Z,99930.84
2023-05-23T11:28:11.275Z,99940.03
2023-05-23T11:30:41.163Z,99926.09
2023-05-23T11:33:13.645Z,99917.00
2023-05-23T11:35:43.986Z,99925.22
2023-05-23T11:38:13.380Z,99912.00
2023-05-23T11:40:45.107Z,99909.13
2023-05-23T11:43:16.743Z,99899.81
2023-05-23T11:45:47.142Z,99909.59
2023-05-23T11:48:18.139Z,99899.13
2023-05-23T11:50:49.253Z,99895.44
2023-05-23T11:53:19.306Z,99902.13
2023-05-23T11:55:53.850Z,99908.75
2023-05-23T11:58:23.804Z,99902.50
2023-05-23T12:00:55.212Z,99896.38
2023-05-23T12:03:24.862Z,99895.63
2023-05-23T12:05:53.823Z,99902.78
2023-05-23T12:08:23.346Z,99906.03
2023-05-23T12:10:54.356Z,99894.72
2023-05-23T12:13:26.443Z,99885.88
2023-05-23T12:15:56.881Z,99886.63
2023-05-23T12:18:30.571Z,99881.66
2023-05-23T12:21:03.281Z,99890.00
2023-05-23T12:23:34.700Z,99899.00
2023-05-23T12:26:08.375Z,99891.78
2023-05-23T12:28:38.200Z,99896.72
2023-05-23T12:31:12.399Z,99896.44
2023-05-23T12:33:44.061Z,99892.81
2023-05-23T12:36:13.487Z,99889.03
2023-05-23T12:38:45.507Z,99880.88
2023-05-23T12:41:19.910Z,99885.06
2023-05-23T12:43:53.015Z,99879.75
2023-05-23T12:46:23.036Z,99869.25
2023-05-23T12:48:52.975Z,99870.22
2023-05-23T12:51:21.924Z,99872.06
2023-05-23T12:53:51.144Z,99875.22
2023-05-23T12:56:22.541Z,99867.91
2023-05-23T12:58:52.345Z,99877.84
2023-05-23T13:01:22.101Z,99865.72
2023-05-23T13:03:51.145Z,99872.03
2023-05-23T13:06:20.369Z,99863.34
2023-05-23T13:08:50.940Z,99860.63
2023-05-23T13:11:22.691Z,99858.66
2023-05-23T13:13:51.768Z,99854.13
2023-05-23T13:16:20.962Z,99851.81
2023-05-23T13:18:50.032Z,99846.44
2023-05-23T13:21:19.059Z,99854.22
2023-05-23T13:23:48.113Z,99852.97
2023-05-23T13:26:17.418Z,99850.09
2023-05-23T13:28:47.668Z,99850.66
2023-05-23T13:31:16.826Z,99842.88
2023-05-23T13:33:45.981Z,99837.22
2023-05-23T13:36:15.066Z,99845.28
2023-05-23T13:38:44.224Z,99849.19
2023-05-23T13:41:13.295Z,99836.56
2023-05-23T13:43:41.938Z,99840.91
2023-05-23T13:46:13.383Z,99847.75
2023-05-23T13:48:42.431Z,99849.78
2023-05-23T13:51:11.547Z,99842.22
2023-05-23T13:53:40.713Z,99834.78
2023-05-23T13:56:10.272Z,99828.41
2023-05-23T13:58:38.992Z,99837.84
2023-05-23T14:01:08.059Z,99826.31
2023-05-23T14:03:38.810Z,99837.31
2023-05-23T14:06:08.202Z,99837.16
2023-05-23T14:08:37.272Z,99837.06
2023-05-23T14:11:06.427Z,99818.16
2023-05-23T14:13:35.009Z,99823.56
2023-05-23T14:16:04.502Z,99828.63
2023-05-23T14:18:34.181Z,99828.81
2023-05-23T14:21:04.446Z,99812.38
2023-05-23T14:23:33.478Z,99816.63
2023-05-23T14:26:02.552Z,99808.22
2023-05-23T14:28:31.728Z,99809.41
2023-05-23T14:31:00.800Z,99815.13
2023-05-23T14:33:30.159Z,99809.56
2023-05-23T14:35:59.801Z,99814.00
2023-05-23T14:38:30.832Z,99813.63
2023-05-23T14:41:00.161Z,99812.47
2023-05-23T14:43:28.962Z,99813.22
2023-05-23T14:45:58.210Z,99807.84
2023-05-23T14:48:27.377Z,99797.50
2023-05-23T14:50:56.564Z,99805.56
2023-05-23T14:53:25.867Z,99805.34
2023-05-23T14:55:56.970Z,99794.06
2023-05-23T14:58:26.301Z,99800.50
2023-05-23T15:00:55.349Z,99803.25
2023-05-23T15:03:24.370Z,99798.22
2023-05-23T15:05:53.377Z,99800.66
2023-05-23T15:08:22.444Z,99809.88
2023-05-23T15:10:51.598Z,99804.25
2023-05-23T15:13:22.114Z,99795.34
2023-05-23T15:15:51.227Z,99798.69
2023-05-23T15:18:31.723Z,99801.84
2023-05-23T15:21:08.498Z,99793.38
2023-05-23T15:23:37.634Z,99790.13
2023-05-23T15:26:06.852Z,99778.19
2023-05-23T15:28:36.969Z,99787.16
2023-05-23T15:31:06.347Z,99789.09
2023-05-23T15:33:35.159Z,99779.50
2023-05-23T15:36:04.646Z,99788.03
2023-05-23T15:38:33.452Z,99783.06
2023-05-23T15:41:03.576Z,99787.34
2023-05-23T15:43:32.880Z,99787.75
2023-05-23T15:46:06.143Z,99787.69
2023-05-23T15:48:35.282Z,99776.56
2023-05-23T15:51:04.368Z,99787.69
2023-05-23T15:53:40.081Z,99791.84
2023-05-23T15:56:09.565Z,99777.75
2023-05-23T15:58:38.269Z,99784.84
2023-05-23T16:01:09.935Z,99776.84
2023-05-23T16:03:39.186Z,99773.78
2023-05-23T16:06:08.495Z,99767.97
2023-05-23T16:08:37.460Z,99770.50
2023-05-23T16:11:06.733Z,99778.84
2023-05-23T16:13:35.939Z,99782.75
2023-05-23T16:16:05.576Z,99783.50
2023-05-23T16:18:36.277Z,99779.44
2023-05-23T16:21:05.901Z,99775.50
2023-05-23T16:23:35.102Z,99775.66
2023-05-23T16:26:04.317Z,99775.06
2023-05-23T16:28:33.062Z,99763.47
2023-05-23T16:31:02.064Z,99771.97
2023-05-23T16:33:31.337Z,99777.53
2023-05-23T16:36:01.839Z,99769.63
2023-05-23T16:38:31.041Z,99769.13
2023-05-23T16:41:00.268Z,99769.06
2023-05-23T16:43:29.004Z,99775.75
2023-05-23T16:45:58.092Z,99777.06
2023-05-23T16:48:27.513Z,99770.81
2023-05-23T16:50:56.745Z,99776.75
2023-05-23T16:53:27.500Z,99773.25
2023-05-23T16:55:56.233Z,99782.59
2023-05-23T16:58:25.449Z,99774.72
2023-05-23T17:00:54.664Z,99790.47
2023-05-23T17:03:24.031Z,99779.09
2023-05-23T17:05:53.431Z,99784.97
2023-05-23T17:08:22.447Z,99783.84
2023-05-23T17:10:52.605Z,99782.63
2023-05-23T17:13:21.686Z,99787.34
2023-05-23T17:15:50.676Z,99786.91
2023-05-23T17:18:19.786Z,99786.78
2023-05-23T17:20:48.860Z,99781.81
2023-05-23T17:23:19.268Z,99786.25
2023-05-23T17:25:47.831Z,99792.88
2023-05-23T17:28:18.368Z,99793.44
2023-05-23T17:30:47.696Z,99791.53
2023-05-23T17:33:17.476Z,99789.28
2023-05-23T17:35:46.915Z,99790.78
2023-05-23T17:38:16.077Z,99791.25
2023-05-23T17:40:44.918Z,99796.38
2023-05-23T17:43:14.589Z,99796.84
2023-05-23T17:45:45.269Z,99790.56
2023-05-23T17:48:16.056Z,99792.03
2023-05-23T17:50:46.044Z,99786.13
2023-05-23T17:53:16.100Z,99791.69
2023-05-23T17:55:45.223Z,99786.50
2023-05-23T17:58:14.405Z,99796.53
2023-05-23T18:00:45.042Z,99795.66
2023-05-23T18:03:14.403Z,99792.84
2023-05-23T18:05:43.561Z,99791.88
2023-05-23T18:08:12.566Z,99791.94
2023-05-23T18:10:41.423Z,99794.53
2023-05-23T18:13:10.928Z,99792.63
2023-05-23T18:15:40.259Z,99793.06
2023-05-23T18:18:10.744Z,99790.41
2023-05-23T18:20:40.197Z,99789.19
2023-05-23T18:23:09.715Z,99790.41
2023-05-23T18:25:38.482Z,99792.22
2023-05-23T18:28:07.590Z,99796.00
2023-05-23T18:30:36.745Z,99795.00
2023-05-23T18:33:06.202Z,99809.31
2023-05-23T18:35:36.991Z,99807.19
2023-05-23T18:38:06.166Z,99816.78
2023-05-23T18:40:34.909Z,99817.09
2023-05-23T18:43:04.127Z,99821.97
2023-05-23T18:45:33.199Z,99816.88
2023-05-23T18:48:02.501Z,99813.28
2023-05-23T18:50:31.694Z,99824.47
2023-05-23T18:53:02.475Z,99828.53
2023-05-23T18:55:30.910Z,99821.97
2023-05-23T18:58:00.642Z,99838.34
2023-05-23T19:00:29.716Z,99834.44
2023-05-23T19:02:58.734Z,99838.19
2023-05-23T19:05:29.480Z,99837.06
2023-05-23T19:07:58.312Z,99843.09
2023-05-23T19:10:28.825Z,99839.53
2023-05-23T19:12:57.859Z,99831.19
2023-05-23T19:15:26.858Z,99834.13
2023-05-23T19:17:55.991Z,99835.19
2023-05-23T19:20:25.105Z,99840.31
2023-05-23T19:22:53.955Z,99833.66
2023-05-23T19:25:23.373Z,99843.19
2023-05-23T19:27:53.998Z,99837.59
2023-05-23T19:30:23.944Z,99835.38
2023-05-23T19:32:53.230Z,99837.75
2023-05-23T19:35:22.626Z,99851.75
2023-05-23T19:37:51.385Z,99851.47
2023-05-23T19:40:21.713Z,99851.25
2023-05-23T19:42:50.721Z,99842.97
2023-05-23T19:45:21.400Z,99851.88
2023-05-23T19:47:50.814Z,99847.69
2023-05-23T19:50:22.032Z,99850.72
2023-05-23T19:52:50.724Z,99851.31
2023-05-23T19:55:19.672Z,99852.13
2023-05-23T19:57:48.907Z,99852.97
2023-05-23T20:00:18.550Z,99853.16
2023-05-23T20:02:49.313Z,99849.88
2023-05-23T20:05:18.552Z,99857.03
2023-05-23T20:07:47.335Z,99848.59
2023-05-23T20:10:16.604Z,99860.44
2023-05-23T20:12:45.585Z,99848.59
2023-05-23T20:15:15.984Z,99849.66
2023-05-23T20:17:48.434Z,99852.94
2023-05-23T20:20:17.475Z,99859.16
2023-05-23T20:22:46.120Z,99860.09
2023-05-23T20:25:15.240Z,99857.38
2023-05-23T20:27:44.279Z,99867.59
2023-05-23T20:30:14.644Z,99861.97
2023-05-23T20:32:45.594Z,99872.75
2023-05-23T20:35:16.105Z,99868.75
2023-05-23T20:37:44.657Z,99872.41
2023-05-23T20:40:14.388Z,99877.31
2023-05-23T20:42:45.270Z,99874.03
2023-05-23T20:45:15.568Z,99865.94
2023-05-23T20:47:44.514Z,99873.31
2023-05-23T20:50:15.320Z,99873.44
2023-05-23T20:52:44.061Z,99878.91
2023-05-23T20:55:14.325Z,99874.56
2023-05-23T20:57:43.392Z,99871.78
2023-05-23T21:00:14.487Z,99874.53
2023-05-23T21:02:44.061Z,99862.56
2023-05-23T21:05:13.297Z,99859.63
2023-05-23T21:07:43.437Z,99861.41
2023-05-23T21:10:12.926Z,99867.09
2023-05-23T21:12:49.315Z,99871.16
2023-05-23T21:15:18.738Z,99870.78
2023-05-23T21:17:47.775Z,99870.75
2023-05-23T21:20:17.296Z,99871.53
2023-05-23T21:22:47.395Z,99865.41
2023-05-23T21:25:16.523Z,99863.03
2023-05-23T21:27:45.762Z,99869.09
2023-05-23T21:30:16.098Z,99869.78
2023-05-23T21:32:44.904Z,99866.03
2023-05-23T21:35:14.007Z,99868.56
2023-05-23T21:37:42.586Z,99865.19
2023-05-23T21:40:13.870Z,99864.84
2023-05-23T21:42:43.006Z,99865.91
2023-05-23T21:45:12.623Z,99872.13
2023-05-23T21:47:41.675Z,99866.13
2023-05-23T21:50:12.133Z,99864.13
2023-05-23T21:52:40.828Z,99875.94
2023-05-23T21:55:09.978Z,99878.00
2023-05-23T21:57:40.547Z,99875.78
2023-05-23T22:00:12.846Z,99874.94
2023-05-23T22:02:44.425Z,99871.88
2023-05-23T22:05:13.765Z,99868.78
2023-05-23T22:07:42.542Z,99877.47
2023-05-23T22:10:12.083Z,99874.78
2023-05-23T22:12:42.559Z,99864.47
2023-05-23T22:15:13.344Z,99869.47
2023-05-23T22:17:43.864Z,99870.28
2023-05-23T22:20:14.853Z,99868.63
2023-05-23T22:22:43.567Z,99861.03
2023-05-23T22:25:12.695Z,99869.09
2023-05-23T22:27:43.152Z,99861.03
2023-05-23T22:30:13.067Z,99860.88
2023-05-23T22:32:42.179Z,99870.16
2023-05-23T22:35:11.530Z,99865.25
2023-05-23T22:37:40.056Z,99871.69
2023-05-23T22:40:11.250Z,99873.94
2023-05-23T22:42:40.739Z,99877.66
2023-05-23T22:45:12.147Z,99878.13
2023-05-23T22:47:41.806Z,99887.06
2023-05-23T22:50:11.995Z,99883.34
2023-05-23T22:52:40.610Z,99883.34
2023-05-23T22:55:10.364Z,99880.53
2023-05-23T22:57:39.333Z,99876.03
2023-05-23T23:00:11.950Z,99872.97
2023-05-23T23:02:41.050Z,99872.59
2023-05-23T23:05:12.320Z,99871.53
2023-05-23T23:07:40.977Z,99871.44
2023-05-23T23:10:11.051Z,99875.16
2023-05-23T23:12:40.090Z,99867.03
2023-05-23T23:15:11.357Z,99862.56
2023-05-23T23:17:40.430Z,99862.41
2023-05-23T23:20:12.644Z,99864.34
2023-05-23T23:22:41.589Z,99858.34
2023-05-23T23:25:12.266Z,99853.84
2023-05-23T23:27:41.683Z,99855.75
2023-05-23T23:30:12.985Z,99862.53
2023-05-23T23:32:42.161Z,99854.31
2023-05-23T23:35:11.423Z,99860.53
2023-05-23T23:37:40.475Z,99853.19
2023-05-23T23:40:10.864Z,99852.13
2023-05-23T23:42:40.008Z,99851.00
2023-05-23T23:45:09.956Z,99849.38
2023-05-23T23:47:40.462Z,99853.72
2023-05-23T23:50:10.351Z,99851.31
2023-05-23T23:52:39.060Z,99841.75
2023-05-23T23:55:08.798Z,99847.88
2023-05-23T23:57:37.887Z,99845.31
